Alta, California
Current Conditions -  °F | °C
As of 1:52 AM on Wednesday 26 Nov 2014 (Local Time) from KBLU Reporting Station
Clear Clear  
Wind Chill: 57°   Ceiling: Unl
Heat Index: 57°   Visibility: 10mi
Dew Point: 19°   Wind: 5mph
Humidity: 23%   Direction: 60°ENE
Pressure: 30.46"   Gusts: NA
Location:  39.21°N, 120.81°W
Report Text: KBLU 260952Z AUTO 06004KT 10SM CLR 14/M07 A3046 RMK AO2 SLP254 T01391072
Loading
Personal Weather Stations






























Interactive Weather Map New forecast layout! Learn more

10-Day Weather Forecast

Advertisements
Track Severe Weather on mobile